createdAt,value
2019-05-09T00:00:33.570Z,1.90
2019-05-09T00:01:33.579Z,2.30
2019-05-09T00:02:33.677Z,2.20
2019-05-09T00:03:33.535Z,1.80
2019-05-09T00:04:33.484Z,1.70
2019-05-09T00:05:33.472Z,1.70
2019-05-09T00:06:34.002Z,2.20
2019-05-09T00:07:33.728Z,2.30
2019-05-09T00:08:33.536Z,1.90
2019-05-09T00:09:33.554Z,2.10
2019-05-09T00:10:39.386Z,1.90
2019-05-09T00:11:33.594Z,2.60
2019-05-09T00:12:33.582Z,1.80
2019-05-09T00:13:34.146Z,1.90
2019-05-09T00:14:34.200Z,2.20
2019-05-09T00:15:33.254Z,2.30
2019-05-09T00:16:33.511Z,1.90
2019-05-09T00:17:33.755Z,1.90
2019-05-09T00:18:33.608Z,1.80
2019-05-09T00:19:33.369Z,1.90
2019-05-09T00:20:33.186Z,2.20
2019-05-09T00:21:33.267Z,1.60
2019-05-09T00:22:33.249Z,2.10
2019-05-09T00:23:33.215Z,2.20
2019-05-09T00:24:33.187Z,1.70
2019-05-09T00:25:34.008Z,1.80
2019-05-09T00:26:33.900Z,1.90
2019-05-09T00:27:33.231Z,2.20
2019-05-09T00:28:33.828Z,2.00
2019-05-09T00:29:33.481Z,1.70
2019-05-09T00:30:33.229Z,2.00
2019-05-09T00:31:33.779Z,2.20
2019-05-09T00:32:34.063Z,2.60
2019-05-09T00:33:34.333Z,2.30
2019-05-09T00:34:33.792Z,1.90
2019-05-09T00:35:33.852Z,1.80
2019-05-09T00:36:33.456Z,1.80
2019-05-09T00:37:33.047Z,1.50
2019-05-09T00:38:33.342Z,1.80
2019-05-09T00:39:34.065Z,2.20
2019-05-09T00:40:34.142Z,2.30
2019-05-09T00:41:33.071Z,2.30
2019-05-09T00:42:33.369Z,1.50
2019-05-09T00:43:34.221Z,1.70
2019-05-09T00:44:33.887Z,1.70
2019-05-09T00:45:33.312Z,2.00
2019-05-09T00:46:34.053Z,1.70
2019-05-09T00:47:32.982Z,1.80
2019-05-09T00:48:33.689Z,2.40
2019-05-09T00:49:34.143Z,1.90
2019-05-09T00:50:33.990Z,1.80
2019-05-09T00:51:33.904Z,2.60
2019-05-09T00:52:33.934Z,2.20
2019-05-09T00:53:33.882Z,2.40
2019-05-09T00:54:33.491Z,2.10
2019-05-09T00:55:33.237Z,1.90
2019-05-09T00:56:33.127Z,1.80
2019-05-09T00:57:33.484Z,3.00
2019-05-09T00:58:33.401Z,1.80
2019-05-09T00:59:33.289Z,1.50
2019-05-09T01:00:33.357Z,1.90
2019-05-09T01:01:34.080Z,1.60
2019-05-09T01:02:34.046Z,1.70
2019-05-09T01:03:33.996Z,1.60
2019-05-09T01:04:33.329Z,1.60
2019-05-09T01:05:34.090Z,1.50
2019-05-09T01:06:34.056Z,1.50
2019-05-09T01:07:33.680Z,1.50
2019-05-09T01:08:33.487Z,1.50
2019-05-09T01:09:33.375Z,1.60
2019-05-09T01:10:34.118Z,1.60
2019-05-09T01:11:33.290Z,1.80
2019-05-09T01:12:34.111Z,1.80
2019-05-09T01:13:34.082Z,1.60
2019-05-09T01:14:33.924Z,1.70
2019-05-09T01:15:33.410Z,2.20
2019-05-09T01:16:33.474Z,2.40
2019-05-09T01:17:33.512Z,2.30
2019-05-09T01:18:33.144Z,1.50
2019-05-09T01:19:33.874Z,1.50
2019-05-09T01:20:33.335Z,1.70
2019-05-09T01:21:33.327Z,1.50
2019-05-09T01:22:33.109Z,1.60
2019-05-09T01:23:34.042Z,1.70
2019-05-09T01:24:33.751Z,2.00
2019-05-09T01:25:33.501Z,1.90
2019-05-09T01:26:33.387Z,1.90
2019-05-09T01:29:04.381Z,1.60
2019-05-09T01:30:04.514Z,1.90
2019-05-09T01:31:55.451Z,2.00
2019-05-09T01:32:55.340Z,2.20
2019-05-09T01:34:47.824Z,2.40
2019-05-09T01:35:47.625Z,2.10
2019-05-09T01:37:39.990Z,1.70
2019-05-09T01:38:39.955Z,1.60
2019-05-09T01:40:33.205Z,2.20
2019-05-09T01:41:34.084Z,2.00
2019-05-09T01:43:24.673Z,2.00
2019-05-09T01:44:24.672Z,1.40
2019-05-09T01:46:17.317Z,2.00
2019-05-09T01:47:17.026Z,1.90
2019-05-09T01:49:09.955Z,2.20
2019-05-09T01:50:09.322Z,2.00
2019-05-09T01:52:03.384Z,2.10
2019-05-09T01:53:03.857Z,2.00
2019-05-09T01:54:54.176Z,1.70
2019-05-09T01:55:54.042Z,1.70
2019-05-09T01:57:47.988Z,1.60
2019-05-09T01:58:46.337Z,1.80
2019-05-09T02:00:38.707Z,1.80
2019-05-09T02:01:38.707Z,1.60
2019-05-09T02:05:03.993Z,1.90
2019-05-09T02:06:03.547Z,1.70
2019-05-09T02:07:54.274Z,1.80
2019-05-09T02:08:54.654Z,1.80
2019-05-09T02:10:46.391Z,2.00
2019-05-09T02:11:46.296Z,1.70
2019-05-09T02:13:38.715Z,1.60
2019-05-09T02:14:38.618Z,1.60
2019-05-09T02:16:31.162Z,1.70
2019-05-09T02:17:30.947Z,2.20
2019-05-09T02:19:24.158Z,1.50
2019-05-09T02:20:24.244Z,1.70
2019-05-09T02:22:16.467Z,1.50
2019-05-09T02:23:16.210Z,1.90
2019-05-09T02:25:08.568Z,1.50
2019-05-09T02:26:08.560Z,1.50
2019-05-09T02:28:03.350Z,2.20
2019-05-09T02:29:03.081Z,1.60
2019-05-09T02:32:24.284Z,1.70
2019-05-09T02:33:25.080Z,1.60
2019-05-09T02:35:16.916Z,1.30
2019-05-09T02:36:18.945Z,1.30
2019-05-09T02:37:18.679Z,1.60
2019-05-09T02:38:19.729Z,1.20
2019-05-09T02:39:18.891Z,2.60
2019-05-09T02:40:18.748Z,1.30
2019-05-09T02:41:19.494Z,1.50
2019-05-09T02:42:19.582Z,1.70
2019-05-09T02:43:18.736Z,1.70
2019-05-09T02:44:19.312Z,1.70
2019-05-09T02:45:19.175Z,1.50
2019-05-09T02:46:18.793Z,1.40
2019-05-09T02:47:18.012Z,1.30
2019-05-09T02:48:18.619Z,1.80
2019-05-09T02:49:18.925Z,1.40
2019-05-09T02:50:19.530Z,1.70
2019-05-09T02:51:18.545Z,1.40
2019-05-09T02:52:19.442Z,1.20
2019-05-09T02:53:18.979Z,1.70
2019-05-09T02:54:19.162Z,1.70
2019-05-09T02:55:18.456Z,1.60
2019-05-09T02:56:18.832Z,1.60
2019-05-09T02:57:18.528Z,1.70
2019-05-09T02:58:20.385Z,1.70
2019-05-09T02:59:18.906Z,2.20
2019-05-09T03:00:19.686Z,2.00
2019-05-09T03:01:18.943Z,1.50
2019-05-09T03:02:19.269Z,1.50
2019-05-09T03:03:19.537Z,1.50
2019-05-09T03:04:18.878Z,1.80
2019-05-09T03:05:19.232Z,1.60
2019-05-09T03:06:19.261Z,1.30
2019-05-09T03:07:18.885Z,1.50
2019-05-09T03:08:18.996Z,1.30
2019-05-09T03:09:19.020Z,1.60
2019-05-09T03:10:19.119Z,1.70
2019-05-09T03:11:18.684Z,1.90
2019-05-09T03:12:26.777Z,1.60
2019-05-09T03:13:19.071Z,1.50
2019-05-09T03:14:19.244Z,1.60
2019-05-09T03:15:18.561Z,1.40
2019-05-09T03:16:19.052Z,1.70
2019-05-09T03:17:18.436Z,1.50
2019-05-09T03:18:18.374Z,1.80
2019-05-09T03:19:19.110Z,1.60
2019-05-09T03:20:18.221Z,1.60
2019-05-09T03:21:19.017Z,1.50
2019-05-09T03:22:18.685Z,1.60
2019-05-09T03:23:18.875Z,1.50
2019-05-09T03:24:18.464Z,1.70
2019-05-09T03:25:19.006Z,1.70
2019-05-09T03:26:19.213Z,1.60
2019-05-09T03:27:18.709Z,2.00
2019-05-09T03:28:18.435Z,1.80
2019-05-09T03:29:18.814Z,1.70
2019-05-09T03:30:20.406Z,1.50
2019-05-09T03:31:19.489Z,1.70
2019-05-09T03:32:19.092Z,2.00
2019-05-09T03:33:19.838Z,1.90
2019-05-09T03:34:19.268Z,1.40
2019-05-09T03:35:17.273Z,1.30
2019-05-09T03:36:18.020Z,1.30
2019-05-09T03:37:17.648Z,1.90
2019-05-09T03:38:17.825Z,2.10
2019-05-09T03:39:18.365Z,1.70
2019-05-09T03:40:17.958Z,1.40
2019-05-09T03:41:17.718Z,2.10
2019-05-09T03:42:20.653Z,1.60
2019-05-09T03:43:18.176Z,1.90
2019-05-09T03:44:17.843Z,1.80
2019-05-09T03:45:18.089Z,1.80
2019-05-09T03:46:18.040Z,1.70
2019-05-09T03:47:17.329Z,1.50
2019-05-09T03:48:17.943Z,2.00
2019-05-09T03:49:17.909Z,1.80
2019-05-09T03:50:17.752Z,1.50
2019-05-09T03:51:18.217Z,1.50
2019-05-09T03:52:17.753Z,2.10
2019-05-09T03:53:18.299Z,1.50
2019-05-09T03:54:18.170Z,1.50
2019-05-09T03:55:17.919Z,1.70
2019-05-09T03:56:18.027Z,1.70
2019-05-09T03:57:17.897Z,2.30
2019-05-09T03:58:18.293Z,1.80
2019-05-09T03:59:17.636Z,3.40
2019-05-09T04:00:17.948Z,2.30
2019-05-09T04:01:17.512Z,1.70
2019-05-09T04:02:17.801Z,1.50
2019-05-09T04:03:19.838Z,1.70
2019-05-09T04:04:17.359Z,1.90
2019-05-09T04:05:17.974Z,1.40
2019-05-09T04:06:18.278Z,2.20
2019-05-09T04:07:15.816Z,1.80
2019-05-09T04:08:17.938Z,2.00
2019-05-09T04:09:17.861Z,1.80
2019-05-09T04:10:17.912Z,2.50
2019-05-09T04:11:15.787Z,1.90
2019-05-09T04:12:17.954Z,1.80
2019-05-09T04:13:18.032Z,2.20
2019-05-09T04:14:17.558Z,1.70
2019-05-09T04:15:18.840Z,2.00
2019-05-09T04:16:17.365Z,2.10
2019-05-09T04:17:18.043Z,1.90
2019-05-09T04:18:17.690Z,1.90
2019-05-09T04:19:17.479Z,2.10
2019-05-09T04:20:17.511Z,2.00
2019-05-09T04:21:17.547Z,1.90
2019-05-09T04:22:18.018Z,2.10
2019-05-09T04:23:15.689Z,1.60
2019-05-09T04:24:17.582Z,1.70
2019-05-09T04:25:17.966Z,1.60
2019-05-09T04:26:17.508Z,2.30
2019-05-09T04:27:17.700Z,2.20
2019-05-09T04:28:17.640Z,1.90
2019-05-09T04:29:15.614Z,1.60
2019-05-09T04:30:15.604Z,1.80
2019-05-09T04:31:17.710Z,1.80
2019-05-09T04:32:15.597Z,2.30
2019-05-09T04:33:17.597Z,1.60
2019-05-09T04:34:15.603Z,1.60
2019-05-09T04:35:17.445Z,1.70
2019-05-09T04:36:15.572Z,2.10
2019-05-09T04:37:17.866Z,1.80
2019-05-09T04:38:17.753Z,1.80
2019-05-09T04:39:18.945Z,1.90
2019-05-09T04:40:17.671Z,1.60
2019-05-09T04:41:16.307Z,1.70
2019-05-09T04:42:15.505Z,1.80
2019-05-09T04:43:18.749Z,1.60
2019-05-09T04:44:19.303Z,1.60
2019-05-09T04:45:17.246Z,1.40
2019-05-09T04:46:20.736Z,1.90
2019-05-09T04:47:17.370Z,1.80
2019-05-09T04:48:20.258Z,1.90
2019-05-09T04:49:15.454Z,1.80
2019-05-09T04:50:23.104Z,1.50
2019-05-09T04:51:15.456Z,1.90
2019-05-09T04:52:15.434Z,1.80
2019-05-09T04:53:15.419Z,2.00
2019-05-09T04:54:17.581Z,2.00
2019-05-09T04:55:15.374Z,2.10
2019-05-09T04:56:17.412Z,1.70
2019-05-09T04:57:17.696Z,2.60
2019-05-09T04:58:15.369Z,2.10
2019-05-09T04:59:17.679Z,2.00
2019-05-09T05:00:15.353Z,1.60
2019-05-09T05:01:19.609Z,1.70
2019-05-09T05:02:15.308Z,2.00
2019-05-09T05:03:15.319Z,2.40
2019-05-09T05:04:15.294Z,2.00
2019-05-09T05:05:15.291Z,2.00
2019-05-09T05:06:18.171Z,2.00
2019-05-09T05:07:15.291Z,2.00
2019-05-09T05:08:15.287Z,2.20
2019-05-09T05:09:15.277Z,2.60
2019-05-09T05:10:15.255Z,2.40
2019-05-09T05:11:15.245Z,1.90
2019-05-09T05:12:15.228Z,2.10
2019-05-09T05:13:25.644Z,1.80
2019-05-09T05:14:15.199Z,2.20
2019-05-09T05:15:15.213Z,2.00
2019-05-09T05:16:15.213Z,1.90
2019-05-09T05:17:15.191Z,2.30
2019-05-09T05:18:17.452Z,2.30
2019-05-09T05:19:15.167Z,2.40
2019-05-09T05:20:15.164Z,1.70
2019-05-09T05:21:15.150Z,2.20
2019-05-09T05:22:15.136Z,2.00
2019-05-09T05:23:15.150Z,1.70
2019-05-09T05:24:15.125Z,2.30
2019-05-09T05:25:17.722Z,1.80
2019-05-09T05:26:15.110Z,2.30
2019-05-09T05:27:15.100Z,1.60
2019-05-09T05:28:15.078Z,1.90
2019-05-09T05:29:15.059Z,1.50
2019-05-09T05:30:15.056Z,1.60
2019-05-09T05:31:15.042Z,1.80
2019-05-09T05:32:15.044Z,2.30
2019-05-09T05:33:15.036Z,2.10
2019-05-09T05:34:15.059Z,1.80
2019-05-09T05:35:15.019Z,2.00
2019-05-09T05:36:15.018Z,2.40
2019-05-09T05:37:15.007Z,2.10
2019-05-09T05:38:16.998Z,2.10
2019-05-09T05:39:14.991Z,2.20
2019-05-09T05:40:14.985Z,1.80
2019-05-09T05:41:14.981Z,1.90
2019-05-09T05:42:17.512Z,2.20
2019-05-09T05:43:17.280Z,2.10
2019-05-09T05:44:14.926Z,1.60
2019-05-09T05:45:14.934Z,2.20
2019-05-09T05:46:14.917Z,1.70
2019-05-09T05:47:14.912Z,2.00
2019-05-09T05:48:17.370Z,1.50
2019-05-09T05:49:14.903Z,2.00
2019-05-09T05:50:14.906Z,1.90
2019-05-09T05:51:14.868Z,2.50
2019-05-09T05:52:14.871Z,2.30
2019-05-09T05:53:14.860Z,2.00
2019-05-09T05:54:14.829Z,2.10
2019-05-09T05:55:14.840Z,2.10
2019-05-09T05:56:14.814Z,2.40
2019-05-09T05:57:14.827Z,2.70
2019-05-09T05:58:14.818Z,2.20
2019-05-09T05:59:14.805Z,2.00
2019-05-09T06:00:14.791Z,2.30
2019-05-09T06:01:14.788Z,2.40
2019-05-09T06:02:14.783Z,2.70
2019-05-09T06:03:14.806Z,2.50
2019-05-09T06:04:14.768Z,2.60
2019-05-09T06:05:14.731Z,3.10
2019-05-09T06:06:14.788Z,2.90
2019-05-09T06:07:14.738Z,3.00
2019-05-09T06:08:14.735Z,3.80
2019-05-09T06:09:14.691Z,3.10
2019-05-09T06:10:14.724Z,3.30
2019-05-09T06:11:14.696Z,3.80
2019-05-09T06:12:14.674Z,3.00
2019-05-09T06:13:14.680Z,4.00
2019-05-09T06:14:14.678Z,3.10
2019-05-09T06:15:14.655Z,3.80
2019-05-09T06:16:14.632Z,3.70
2019-05-09T06:17:14.644Z,2.90
2019-05-09T06:18:14.614Z,3.20
2019-05-09T06:19:14.618Z,2.90
2019-05-09T06:20:17.572Z,3.40
2019-05-09T06:21:14.594Z,2.70
2019-05-09T06:22:14.588Z,2.30
2019-05-09T06:23:14.576Z,3.00
2019-05-09T06:24:14.557Z,2.60
2019-05-09T06:25:14.546Z,3.20
2019-05-09T06:26:14.549Z,3.50
2019-05-09T06:27:14.535Z,3.20
2019-05-09T06:28:14.542Z,2.60
2019-05-09T06:29:14.546Z,2.30
2019-05-09T06:30:14.527Z,2.60
2019-05-09T06:31:14.533Z,2.50
2019-05-09T06:32:14.501Z,3.20
2019-05-09T06:33:14.473Z,2.80
2019-05-09T06:34:14.495Z,2.80
2019-05-09T06:35:14.493Z,3.10
2019-05-09T06:36:14.483Z,3.10
2019-05-09T06:37:14.475Z,2.60
2019-05-09T06:38:14.446Z,2.70
2019-05-09T06:39:14.451Z,2.60
2019-05-09T06:40:14.433Z,3.70
2019-05-09T06:41:14.754Z,3.10
2019-05-09T06:42:14.845Z,2.70
2019-05-09T06:43:14.503Z,3.10
2019-05-09T06:44:19.616Z,2.90
2019-05-09T06:45:14.450Z,2.50
2019-05-09T10:37:52.752Z,2.10
2019-05-09T10:38:52.463Z,2.60
2019-05-09T10:42:18.807Z,2.60
2019-05-09T10:43:34.048Z,2.20
2019-05-09T10:45:11.475Z,2.60
2019-05-09T10:46:15.190Z,2.50
2019-05-09T10:48:04.599Z,2.70
2019-05-09T10:49:04.583Z,3.10
2019-05-09T10:51:04.656Z,2.10
2019-05-09T10:51:58.181Z,2.60
2019-05-09T10:53:51.256Z,2.30
2019-05-09T10:54:51.257Z,2.60
2019-05-09T10:56:44.699Z,2.30
2019-05-09T10:57:44.606Z,2.50
2019-05-09T10:59:37.953Z,2.10
2019-05-09T11:00:39.370Z,2.60
2019-05-09T11:02:31.685Z,2.60
2019-05-09T11:03:31.276Z,2.80
2019-05-09T11:05:24.677Z,2.40
2019-05-09T11:06:24.651Z,2.40
2019-05-09T11:08:18.686Z,2.70
2019-05-09T11:09:18.389Z,2.90
2019-05-09T11:11:11.352Z,2.30
2019-05-09T11:12:11.356Z,2.30
2019-05-09T11:14:04.804Z,2.40
2019-05-09T11:15:04.674Z,2.20
2019-05-09T11:17:07.880Z,2.60
2019-05-09T11:17:58.038Z,2.80
2019-05-09T11:19:52.578Z,3.40
2019-05-09T11:20:52.347Z,2.60
2019-05-09T11:22:45.705Z,2.00
2019-05-09T11:23:45.702Z,2.40
2019-05-09T11:25:39.257Z,2.40
2019-05-09T11:26:39.959Z,2.50
2019-05-09T11:28:32.407Z,2.50
2019-05-09T11:29:32.399Z,2.80
2019-05-09T11:31:25.467Z,2.50
2019-05-09T11:32:27.470Z,2.50
2019-05-09T11:34:18.984Z,2.90
2019-05-09T11:35:21.332Z,2.50
2019-05-09T11:37:12.035Z,2.50
2019-05-09T11:38:12.008Z,2.90
2019-05-09T11:40:05.309Z,3.10
2019-05-09T11:41:05.270Z,2.60
2019-05-09T11:42:58.831Z,2.50
2019-05-09T11:43:59.526Z,2.60
2019-05-09T11:45:51.942Z,2.30
2019-05-09T11:46:51.941Z,2.80
2019-05-09T11:48:45.384Z,2.60
2019-05-09T11:49:47.914Z,2.50
2019-05-09T11:51:38.663Z,2.60
2019-05-09T11:52:38.617Z,2.60
2019-05-09T11:54:32.201Z,2.60
2019-05-09T11:55:36.628Z,2.40
2019-05-09T11:57:27.545Z,2.20
2019-05-09T11:58:25.307Z,2.70
2019-05-09T12:00:18.780Z,2.60
2019-05-09T12:01:19.175Z,2.30
2019-05-09T12:03:12.025Z,2.00
2019-05-09T12:04:12.015Z,2.40
2019-05-09T12:06:07.814Z,2.50
2019-05-09T12:07:07.771Z,2.70
2019-05-09T12:08:58.803Z,2.30
2019-05-09T12:09:58.973Z,2.50
2019-05-09T12:11:51.801Z,2.40
2019-05-09T12:12:51.567Z,3.00
2019-05-09T12:14:44.899Z,2.30
2019-05-09T12:15:44.896Z,2.10
2019-05-09T12:17:51.058Z,2.80
2019-05-09T12:18:38.237Z,2.20
2019-05-09T12:20:31.673Z,2.50
2019-05-09T12:21:31.562Z,2.50
2019-05-09T12:23:25.133Z,2.70
2019-05-09T12:24:24.899Z,2.90
2019-05-09T12:26:18.274Z,2.70
2019-05-09T12:27:18.896Z,3.00
2019-05-09T12:29:11.808Z,3.20
2019-05-09T12:30:11.594Z,2.90
2019-05-09T12:32:04.942Z,2.40
2019-05-09T12:33:04.924Z,2.20
2019-05-09T12:34:58.506Z,2.90
2019-05-09T12:36:00.097Z,3.50
2019-05-09T12:37:51.659Z,3.30
2019-05-09T12:38:51.752Z,3.40
2019-05-09T12:40:45.212Z,3.60
2019-05-09T12:41:44.972Z,3.10
2019-05-09T12:43:38.358Z,3.80
2019-05-09T12:44:38.314Z,4.00
2019-05-09T12:46:31.933Z,3.90
2019-05-09T12:47:31.693Z,3.70
2019-05-09T12:49:28.158Z,4.70
2019-05-09T12:50:29.280Z,5.40
2019-05-09T12:52:20.567Z,4.60
2019-05-09T12:53:20.340Z,4.40
2019-05-09T12:55:13.703Z,5.50
2019-05-09T12:58:01.476Z,4.10
2019-05-09T12:59:01.196Z,4.60
2019-05-09T13:00:54.565Z,4.30
2019-05-09T13:01:54.551Z,4.40
2019-05-09T13:03:48.553Z,5.00
2019-05-09T13:04:47.933Z,4.50
2019-05-09T13:06:42.322Z,4.80
2019-05-09T13:07:42.553Z,5.50
2019-05-09T13:09:35.828Z,5.30
2019-05-09T13:10:37.758Z,5.10
2019-05-09T13:11:35.556Z,5.40
2019-05-09T13:12:38.708Z,3.90
2019-05-09T13:13:35.565Z,4.50
2019-05-09T13:14:37.844Z,3.80
2019-05-09T13:15:38.252Z,4.40
2019-05-09T13:16:47.537Z,4.00
2019-05-09T13:17:35.515Z,5.40
2019-05-09T13:18:37.487Z,4.40
2019-05-09T13:19:37.974Z,4.80
2019-05-09T13:20:38.107Z,4.30
2019-05-09T13:21:38.373Z,4.60
2019-05-09T13:22:35.458Z,5.10
2019-05-09T13:23:35.477Z,3.90
2019-05-09T13:24:37.729Z,4.40
2019-05-09T13:25:37.951Z,4.40
2019-05-09T13:26:38.257Z,4.20
2019-05-09T13:27:35.404Z,5.30
2019-05-09T13:28:37.668Z,4.90
2019-05-09T13:29:37.835Z,4.10
2019-05-09T13:30:37.778Z,4.60
2019-05-09T13:31:37.990Z,4.00
2019-05-09T13:32:37.443Z,7.80
2019-05-09T13:33:38.159Z,5.50
2019-05-09T13:34:37.827Z,5.10
2019-05-09T13:35:35.326Z,6.20
2019-05-09T13:36:35.320Z,4.00
2019-05-09T13:37:38.030Z,4.50
2019-05-09T13:38:37.680Z,4.60
2019-05-09T13:39:35.298Z,5.30
2019-05-09T13:40:35.264Z,4.50
2019-05-09T13:41:37.490Z,4.90
2019-05-09T13:42:35.271Z,3.50
2019-05-09T13:43:35.274Z,4.70
2019-05-09T13:44:39.020Z,4.40
2019-05-09T13:45:35.231Z,4.70
2019-05-09T13:46:35.217Z,5.30
2019-05-09T13:47:35.201Z,5.40
2019-05-09T13:48:57.100Z,4.40
2019-05-09T13:49:35.167Z,4.60
2019-05-09T13:50:35.168Z,5.00
2019-05-09T13:51:35.581Z,4.40
2019-05-09T13:52:35.137Z,5.10
2019-05-09T13:53:35.131Z,4.10
2019-05-09T13:54:35.138Z,4.60
2019-05-09T13:55:35.125Z,4.00
2019-05-09T13:56:35.110Z,4.60
2019-05-09T13:57:35.094Z,4.80
2019-05-09T13:58:35.089Z,4.70
2019-05-09T13:59:37.286Z,4.90
2019-05-09T14:00:35.056Z,5.50
2019-05-09T14:01:35.052Z,5.20
2019-05-09T14:02:35.094Z,5.70
2019-05-09T14:03:35.024Z,5.40
2019-05-09T14:04:35.021Z,4.40
2019-05-09T14:05:35.037Z,4.80
2019-05-09T14:06:35.009Z,5.30
2019-05-09T14:07:37.507Z,4.70
2019-05-09T14:08:34.978Z,5.50
2019-05-09T14:09:34.961Z,5.20
2019-05-09T14:10:34.981Z,4.60
2019-05-09T14:11:34.947Z,4.50
2019-05-09T14:12:34.923Z,4.90
2019-05-09T14:13:34.930Z,4.90
2019-05-09T14:14:34.904Z,4.70
2019-05-09T14:15:34.913Z,4.10
2019-05-09T14:16:34.900Z,4.60
2019-05-09T14:17:48.182Z,4.60
2019-05-09T14:18:34.872Z,5.40
2019-05-09T14:19:44.397Z,4.70
2019-05-09T14:20:34.851Z,4.70
2019-05-09T14:21:34.871Z,4.90
2019-05-09T14:22:34.858Z,5.50
2019-05-09T14:23:37.133Z,5.10
2019-05-09T14:24:34.809Z,5.20
2019-05-09T14:25:34.786Z,5.50
2019-05-09T14:26:34.775Z,5.30
2019-05-09T14:27:34.782Z,5.10
2019-05-09T14:28:34.764Z,5.30
2019-05-09T14:29:34.745Z,6.20
2019-05-09T14:30:34.746Z,5.80
2019-05-09T14:31:34.873Z,4.80
2019-05-09T14:32:35.113Z,4.60
2019-05-09T14:33:34.719Z,4.40
2019-05-09T14:34:34.730Z,4.80
2019-05-09T14:35:34.689Z,4.70
2019-05-09T14:36:34.680Z,4.90
2019-05-09T14:37:34.678Z,4.80
2019-05-09T14:38:34.646Z,4.70
2019-05-09T14:39:34.638Z,5.50
2019-05-09T14:40:34.637Z,5.50
2019-05-09T14:41:34.629Z,4.10
2019-05-09T14:42:34.622Z,4.90
2019-05-09T14:43:34.611Z,4.90
2019-05-09T14:44:34.600Z,4.40
2019-05-09T14:45:34.566Z,5.00
2019-05-09T14:46:34.554Z,4.70
2019-05-09T14:47:38.577Z,4.00
2019-05-09T14:48:34.554Z,5.00
2019-05-09T14:49:43.446Z,6.00
2019-05-09T14:50:34.520Z,4.30
2019-05-09T14:51:34.503Z,4.20
2019-05-09T14:52:34.517Z,4.60
2019-05-09T14:53:34.492Z,4.30
2019-05-09T14:54:34.497Z,4.10
2019-05-09T14:55:34.485Z,4.20
2019-05-09T14:56:34.464Z,3.70
2019-05-09T14:57:34.458Z,3.90
2019-05-09T14:58:34.439Z,3.40
2019-05-09T14:59:34.435Z,3.60
2019-05-09T15:00:34.412Z,3.70
2019-05-09T15:01:34.405Z,3.80
2019-05-09T15:02:34.396Z,4.50
2019-05-09T15:03:34.370Z,4.10
2019-05-09T15:04:34.361Z,4.40
2019-05-09T15:05:34.369Z,4.40
2019-05-09T15:06:34.360Z,4.80
2019-05-09T15:07:34.329Z,3.70
2019-05-09T15:08:34.334Z,4.60
2019-05-09T15:09:34.306Z,4.40
2019-05-09T15:10:34.317Z,4.10
2019-05-09T15:11:34.282Z,4.20
2019-05-09T15:12:34.294Z,4.10
2019-05-09T15:13:34.272Z,4.40
2019-05-09T15:14:34.272Z,4.70
2019-05-09T15:15:34.252Z,4.30
2019-05-09T15:16:34.234Z,3.70
2019-05-09T15:17:34.215Z,4.20
2019-05-09T15:18:34.226Z,4.80
2019-05-09T15:19:34.218Z,3.70
2019-05-09T15:20:34.199Z,3.70
2019-05-09T15:21:34.196Z,4.30
2019-05-09T15:22:34.164Z,3.80
2019-05-09T15:23:34.173Z,3.30
2019-05-09T15:24:34.135Z,3.90
2019-05-09T15:25:34.157Z,3.90
2019-05-09T15:26:34.118Z,3.60
2019-05-09T15:27:34.113Z,4.30
2019-05-09T15:28:34.112Z,3.30
2019-05-09T15:29:34.103Z,4.00
2019-05-09T15:30:34.097Z,4.20
2019-05-09T15:31:34.070Z,4.00
2019-05-09T15:32:34.047Z,3.80
2019-05-09T15:33:34.037Z,4.40
2019-05-09T15:34:34.047Z,4.50
2019-05-09T15:35:34.015Z,4.00
2019-05-09T15:36:34.009Z,3.80
2019-05-09T15:37:33.994Z,3.80
2019-05-09T15:38:33.988Z,3.50
2019-05-09T15:39:33.986Z,3.80
2019-05-09T15:40:33.963Z,3.40
2019-05-09T15:41:33.950Z,3.60
2019-05-09T15:42:33.949Z,4.60
2019-05-09T15:43:33.929Z,3.70
2019-05-09T15:44:33.928Z,3.90
2019-05-09T15:45:33.911Z,3.30
2019-05-09T15:46:33.916Z,4.00
2019-05-09T15:47:33.887Z,3.60
2019-05-09T15:48:33.891Z,3.10
2019-05-09T15:49:33.858Z,3.70
2019-05-09T15:50:33.863Z,3.70
2019-05-09T15:51:33.830Z,4.50
2019-05-09T15:52:33.836Z,3.50
2019-05-09T15:53:33.824Z,3.60
2019-05-09T15:54:33.799Z,4.10
2019-05-09T15:55:33.793Z,4.00
2019-05-09T15:56:33.795Z,3.30
2019-05-09T15:57:33.774Z,3.70
2019-05-09T15:58:33.751Z,4.10
2019-05-09T15:59:33.748Z,3.20
2019-05-09T16:00:33.733Z,3.60
2019-05-09T16:01:33.737Z,3.50
2019-05-09T16:02:34.053Z,4.00
2019-05-09T16:03:33.710Z,3.00
2019-05-09T16:04:33.714Z,3.30
2019-05-09T16:05:33.690Z,3.40
2019-05-09T16:06:33.662Z,3.20
2019-05-09T16:07:33.661Z,3.80
2019-05-09T16:08:33.658Z,4.00
2019-05-09T16:09:33.634Z,3.90
2019-05-09T16:10:33.636Z,3.50
2019-05-09T16:11:33.616Z,3.90
2019-05-09T16:12:33.594Z,2.60
2019-05-09T16:13:33.592Z,3.00
2019-05-09T16:14:33.578Z,3.00
2019-05-09T16:15:33.572Z,3.30
2019-05-09T16:16:33.558Z,3.30
2019-05-09T16:17:33.539Z,3.30
2019-05-09T16:18:33.545Z,3.30
2019-05-09T16:19:33.531Z,3.20
2019-05-09T16:20:37.617Z,2.50
2019-05-09T16:21:33.508Z,3.00
2019-05-09T16:22:33.493Z,2.90
2019-05-09T16:23:33.477Z,4.30
2019-05-09T16:24:33.455Z,2.90
2019-05-09T16:25:33.467Z,3.60
2019-05-09T16:26:33.458Z,2.40
2019-05-09T16:27:33.424Z,3.40
2019-05-09T16:28:33.425Z,2.50
2019-05-09T16:29:33.420Z,3.60
2019-05-09T16:30:33.392Z,2.10
2019-05-09T16:31:33.413Z,2.50
2019-05-09T16:32:33.368Z,3.20
2019-05-09T16:33:33.370Z,3.60
2019-05-09T16:34:33.336Z,2.60
2019-05-09T16:35:33.326Z,2.90
2019-05-09T16:36:33.334Z,3.80
2019-05-09T16:37:52.885Z,3.00
2019-05-09T16:38:43.454Z,2.20
2019-05-09T16:39:33.291Z,2.60
2019-05-09T16:40:33.274Z,2.40
2019-05-09T16:41:33.274Z,3.10
2019-05-09T16:42:33.259Z,2.50
2019-05-09T16:43:33.232Z,2.40
2019-05-09T16:44:33.235Z,3.10
2019-05-09T16:45:33.615Z,3.10
2019-05-09T16:46:33.217Z,2.90
2019-05-09T16:47:33.202Z,2.50
2019-05-09T16:48:33.182Z,2.90
2019-05-09T16:49:33.168Z,2.70
2019-05-09T16:50:33.166Z,3.20
2019-05-09T16:51:33.149Z,2.50
2019-05-09T16:52:33.134Z,3.00
2019-05-09T16:53:33.117Z,3.60
2019-05-09T16:54:33.102Z,2.50
2019-05-09T16:55:33.097Z,2.60
2019-05-09T16:56:33.101Z,2.60
2019-05-09T16:57:33.073Z,3.60
2019-05-09T16:58:33.073Z,2.40
2019-05-09T16:59:33.071Z,2.30
2019-05-09T17:00:33.056Z,2.80
2019-05-09T17:01:33.035Z,2.40
2019-05-09T17:02:33.050Z,3.50
2019-05-09T17:03:33.017Z,3.60
2019-05-09T17:04:32.991Z,2.50
2019-05-09T17:05:32.997Z,2.70
2019-05-09T17:06:32.963Z,2.10
2019-05-09T17:07:32.949Z,2.90
2019-05-09T17:08:32.946Z,2.50
2019-05-09T17:09:32.923Z,2.90
2019-05-09T17:10:32.938Z,3.50
2019-05-09T17:11:32.915Z,2.50
2019-05-09T17:12:32.891Z,3.20
2019-05-09T17:13:32.891Z,2.70
2019-05-09T17:14:32.891Z,2.40
2019-05-09T17:15:32.878Z,3.00
2019-05-09T17:16:32.856Z,2.60
2019-05-09T17:17:32.841Z,3.20
2019-05-09T17:18:32.843Z,2.70
2019-05-09T17:19:32.821Z,2.80
2019-05-09T17:20:32.808Z,2.80
2019-05-09T17:21:32.793Z,3.20
2019-05-09T17:22:35.573Z,2.70
2019-05-09T17:23:32.776Z,2.20
2019-05-09T17:24:32.765Z,2.30
2019-05-09T17:25:32.740Z,2.80
2019-05-09T17:26:32.761Z,2.70
2019-05-09T17:27:32.739Z,3.20
2019-05-09T17:28:32.714Z,2.60
2019-05-09T17:29:32.703Z,2.50
2019-05-09T17:30:32.682Z,3.30
2019-05-09T17:31:33.311Z,2.80
2019-05-09T17:32:32.658Z,2.70
2019-05-09T17:33:32.647Z,2.80
2019-05-09T17:34:32.657Z,2.60
2019-05-09T17:35:32.637Z,2.70
2019-05-09T17:36:32.619Z,2.80
2019-05-09T17:37:32.610Z,2.20
2019-05-09T17:38:32.584Z,2.50
2019-05-09T17:39:32.568Z,2.50
2019-05-09T17:40:32.573Z,2.80
2019-05-09T17:41:32.570Z,2.40
2019-05-09T17:42:32.534Z,2.20
2019-05-09T17:43:32.542Z,2.30
2019-05-09T17:44:32.524Z,1.90
2019-05-09T17:45:32.511Z,2.60
2019-05-09T17:46:32.510Z,2.50
2019-05-09T17:47:32.493Z,2.50
2019-05-09T17:48:32.468Z,2.70
2019-05-09T17:49:32.459Z,2.40
2019-05-09T17:50:32.464Z,2.80
2019-05-09T17:51:36.133Z,2.20
2019-05-09T17:52:32.428Z,3.40
2019-05-09T17:53:33.909Z,2.70
2019-05-09T17:54:32.405Z,2.20
2019-05-09T17:55:32.381Z,2.00
2019-05-09T17:56:32.376Z,3.20
2019-05-09T17:57:32.363Z,2.30
2019-05-09T17:58:33.460Z,2.80
2019-05-09T17:59:32.339Z,2.80
2019-05-09T18:00:32.336Z,2.50
2019-05-09T18:01:32.319Z,3.00
2019-05-09T18:02:32.298Z,2.40
2019-05-09T18:03:32.295Z,2.20
2019-05-09T18:04:32.275Z,2.20
2019-05-09T18:05:35.647Z,2.20
2019-05-09T18:06:32.270Z,2.80
2019-05-09T18:07:32.246Z,2.30
2019-05-09T18:08:32.249Z,2.00
2019-05-09T18:09:32.223Z,2.30
2019-05-09T18:10:32.212Z,2.60
2019-05-09T18:11:32.196Z,2.00
2019-05-09T18:12:32.196Z,2.60
2019-05-09T18:13:32.672Z,2.70
2019-05-09T18:14:32.174Z,2.30
2019-05-09T18:15:32.162Z,2.40
2019-05-09T18:16:32.147Z,2.10
2019-05-09T18:17:32.126Z,2.90
2019-05-09T18:18:32.103Z,3.20
2019-05-09T18:19:32.102Z,2.10
2019-05-09T18:20:32.093Z,2.00
2019-05-09T18:21:32.068Z,2.20
2019-05-09T18:22:32.078Z,2.00